Time;durP1;ratioP1;P1;durP2;ratioP2;P2;SDS_P1;SDS_P2;PMS_P1;PMS_P2;Temp;Humidity;BMP_temperature;BMP_pressure;BME280_temperature;BME280_humidity;BME280_pressure;Samples;Min_cycle;Max_cycle;Signal;HPM_P1;HPM_P2
2021/07/07 00:01:22;;;;;;;;;4.00;3.00;;;;;20.78;45.43;100864.66;5037633;28;45783;-84
2021/07/07 00:03:48;;;;;;;;;2.00;2.00;;;;;20.82;45.61;100874.31;5037142;28;45673;-84
2021/07/07 00:06:13;;;;;;;;;4.00;3.00;;;;;20.80;45.26;100869.91;5037671;28;45374;-84
2021/07/07 00:08:39;;;;;;;;;3.00;1.25;;;;;20.82;45.90;100882.22;5037648;28;45593;-83
2021/07/07 00:11:04;;;;;;;;;2.75;2.75;;;;;20.76;45.36;100876.06;5037488;28;45307;-83
2021/07/07 00:13:30;;;;;;;;;5.75;3.50;;;;;20.76;45.49;100883.94;5037158;28;45404;-83
2021/07/07 00:15:56;;;;;;;;;1.25;1.25;;;;;20.78;45.83;100880.44;5037259;28;45337;-83
2021/07/07 00:18:25;;;;;;;;;3.00;3.00;;;;;20.73;45.54;100875.13;5037689;28;45466;-83
2021/07/07 00:20:54;;;;;;;;;3.00;3.00;;;;;20.72;45.76;100870.75;5037167;28;45611;-82
2021/07/07 00:23:22;;;;;;;;;3.00;2.50;;;;;20.77;45.49;100885.72;5036752;28;45618;-82
2021/07/07 00:25:48;;;;;;;;;3.25;2.25;;;;;20.71;45.90;100876.88;5043726;28;45175;-83
2021/07/07 00:28:14;;;;;;;;;3.00;2.00;;;;;20.64;45.67;100880.38;5037053;28;45214;-83
2021/07/07 00:30:40;;;;;;;;;4.75;2.00;;;;;20.61;46.31;100882.09;5036992;28;45710;-83
2021/07/07 00:33:05;;;;;;;;;3.00;3.00;;;;;20.60;45.89;100882.97;5036593;28;45431;-83
2021/07/07 00:35:31;;;;;;;;;3.50;2.00;;;;;20.53;46.18;100880.28;5037663;28;45321;-83
2021/07/07 00:37:57;;;;;;;;;3.00;2.00;;;;;20.58;46.05;100893.47;5037090;28;45324;-83
2021/07/07 00:40:23;;;;;;;;;2.00;2.00;;;;;20.58;46.84;100890.84;5036916;28;46031;-83
2021/07/07 00:42:49;;;;;;;;;3.00;1.50;;;;;20.55;46.09;100885.59;5036763;28;45873;-83
2021/07/07 00:45:15;;;;;;;;;4.00;1.25;;;;;20.57;46.59;100889.09;5035906;28;45357;-83
2021/07/07 00:47:43;;;;;;;;;1.00;1.00;;;;;20.56;46.51;100889.97;5037178;28;45615;-83
2021/07/07 00:50:10;;;;;;;;;1.00;1.00;;;;;20.53;46.53;100889.94;5036959;28;46402;-83
2021/07/07 00:52:36;;;;;;;;;6.00;3.00;;;;;20.54;46.21;100889.09;5036847;28;45765;-83
2021/07/07 00:55:10;;;;;;;;;2.00;2.00;;;;;20.52;46.62;100880.31;5037246;28;45399;-83
2021/07/07 00:57:35;;;;;;;;;3.00;3.00;;;;;20.53;46.15;100884.69;5037098;28;45308;-82
2021/07/07 01:00:09;;;;;;;;;2.75;2.25;;;;;20.52;46.66;100889.06;5042595;28;46572;-83
2021/07/07 01:02:42;;;;;;;;;4.00;2.75;;;;;20.49;47.27;100875.00;5040985;28;45403;-82
2021/07/07 01:05:09;;;;;;;;;2.75;2.50;;;;;20.52;46.45;100886.44;5039942;28;45574;-83
2021/07/07 01:07:37;;;;;;;;;5.25;3.00;;;;;20.45;47.26;100889.91;5036790;28;45439;-83
2021/07/07 01:10:05;;;;;;;;;3.00;2.50;;;;;20.33;46.78;100872.31;5037319;28;45407;-83
2021/07/07 01:12:32;;;;;;;;;5.00;4.75;;;;;20.34;47.19;100887.25;5036330;28;45435;-83
2021/07/07 01:15:00;;;;;;;;;2.00;1.25;;;;;20.29;47.81;100874.94;5017933;28;45356;-84
2021/07/07 01:17:29;;;;;;;;;3.50;0.75;;;;;20.30;48.03;100880.19;5018837;28;45525;-83
2021/07/07 01:19:54;;;;;;;;;3.50;3.00;;;;;20.26;47.88;100867.88;5038009;28;46103;-83
2021/07/07 01:22:20;;;;;;;;;2.75;1.00;;;;;20.28;47.92;100879.28;5039924;28;45439;-83
2021/07/07 01:24:46;;;;;;;;;3.00;2.25;;;;;20.27;48.62;100885.41;5035425;28;45230;-84
2021/07/07 01:27:11;;;;;;;;;2.00;2.00;;;;;20.24;47.95;100878.41;5036711;28;45629;-84
2021/07/07 01:29:37;;;;;;;;;2.75;2.75;;;;;20.14;48.75;100870.47;5018373;28;46911;-81
2021/07/07 01:32:03;;;;;;;;;3.75;2.25;;;;;20.02;48.20;100866.88;5037064;28;45281;-82
2021/07/07 01:34:29;;;;;;;;;3.25;2.25;;;;;19.98;48.74;100865.09;5036231;28;45327;-82
2021/07/07 01:36:54;;;;;;;;;5.00;2.00;;;;;19.94;49.48;100877.34;5036444;28;46025;-83
2021/07/07 01:39:20;;;;;;;;;1.75;1.75;;;;;19.93;49.39;100875.56;5018113;28;46743;-83
2021/07/07 01:41:45;;;;;;;;;3.00;1.75;;;;;19.87;49.31;100866.78;5035761;28;45321;-82
2021/07/07 01:44:11;;;;;;;;;5.00;3.00;;;;;19.88;49.88;100879.03;5038931;28;45340;-81
2021/07/07 01:46:36;;;;;;;;;4.00;2.75;;;;;19.88;49.41;100882.53;5023749;28;45585;-82
2021/07/07 01:49:04;;;;;;;;;2.75;2.75;;;;;19.86;49.80;100880.78;5038486;28;45674;-82
2021/07/07 01:51:30;;;;;;;;;3.00;2.00;;;;;19.80;50.26;100882.47;5036141;28;45340;-82
2021/07/07 01:53:56;;;;;;;;;2.00;2.00;;;;;19.79;50.63;100892.94;5035557;28;45344;-82
2021/07/07 01:56:21;;;;;;;;;3.50;3.00;;;;;19.71;49.88;100890.25;5036215;28;45225;-82
2021/07/07 01:58:47;;;;;;;;;2.25;2.00;;;;;19.69;50.46;100902.50;5035474;28;45800;-83
2021/07/07 02:01:14;;;;;;;;;4.00;2.00;;;;;19.58;50.44;100884.03;5035002;28;45428;-83
2021/07/07 02:03:40;;;;;;;;;2.50;1.75;;;;;19.56;51.30;100879.63;5035673;28;45471;-83
2021/07/07 02:06:06;;;;;;;;;4.50;3.00;;;;;19.58;50.94;100889.28;5018100;28;45537;-82
2021/07/07 02:08:32;;;;;;;;;3.00;3.00;;;;;19.56;51.43;100892.75;5035696;28;45522;-83
2021/07/07 02:10:57;;;;;;;;;3.25;3.25;;;;;19.56;51.08;100885.75;5035422;28;45368;-82
2021/07/07 02:13:23;;;;;;;;;3.00;3.00;;;;;19.57;51.17;100884.88;5035355;28;45383;-83
2021/07/07 02:15:49;;;;;;;;;4.75;2.50;;;;;19.59;51.05;100898.06;5035262;28;45342;-83
2021/07/07 02:18:14;;;;;;;;;1.25;1.25;;;;;19.57;51.42;100890.13;5035502;28;46282;-83
2021/07/07 02:20:42;;;;;;;;;3.50;3.00;;;;;19.59;51.78;100890.16;5035456;28;45457;-84
2021/07/07 02:23:11;;;;;;;;;2.50;2.50;;;;;19.59;51.61;100888.41;5036682;28;45312;-84
2021/07/07 02:25:38;;;;;;;;;4.00;3.00;;;;;19.60;52.02;100897.16;5041432;28;45356;-84
2021/07/07 02:28:05;;;;;;;;;1.25;1.25;;;;;19.59;51.97;100888.41;5035778;28;45395;-84
2021/07/07 02:30:35;;;;;;;;;4.75;2.25;;;;;19.61;51.58;100891.94;5017718;28;45341;-84
2021/07/07 02:33:02;;;;;;;;;6.00;3.00;;;;;19.59;51.77;100898.06;5035817;28;45345;-83
2021/07/07 02:35:31;;;;;;;;;3.00;3.00;;;;;19.56;51.67;100893.63;5036750;28;45387;-83
2021/07/07 02:37:57;;;;;;;;;3.00;1.75;;;;;19.56;52.02;100893.63;5038353;28;45241;-82
2021/07/07 02:40:29;;;;;;;;;4.00;4.00;;;;;19.54;52.47;100897.09;5020859;28;45782;-82
2021/07/07 02:42:55;;;;;;;;;2.50;2.50;;;;;19.50;52.35;100901.47;5038813;28;45336;-83
2021/07/07 02:45:22;;;;;;;;;2.75;2.75;;;;;19.49;52.88;100908.44;5039022;28;45214;-84
2021/07/07 02:47:48;;;;;;;;;5.00;4.50;;;;;19.49;52.51;100895.31;5038515;28;45324;-84
2021/07/07 02:50:16;;;;;;;;;4.00;3.00;;;;;19.48;52.75;100893.56;5038730;28;45774;-82
2021/07/07 02:52:43;;;;;;;;;3.50;3.00;;;;;19.50;52.46;100893.59;5038724;28;45436;-85
2021/07/07 02:55:14;;;;;;;;;4.00;3.00;;;;;19.49;52.78;100897.06;5038897;28;45316;-85
2021/07/07 02:57:59;;;;;;;;;2.75;2.75;;;;;19.53;52.89;100903.22;5038498;28;46358;-85
2021/07/07 03:00:40;;;;;;;;;3.75;2.75;;;;;19.53;52.79;100909.38;5038340;28;45242;-85
2021/07/07 03:03:07;;;;;;;;;3.25;2.00;;;;;19.55;52.49;100910.25;5040693;28;45257;-84
2021/07/07 03:05:43;;;;;;;;;4.50;4.00;;;;;19.53;52.87;100906.75;5044484;28;45540;-85
2021/07/07 03:08:10;;;;;;;;;2.50;2.50;;;;;19.51;53.03;100908.47;5026596;28;47173;-85
2021/07/07 03:10:36;;;;;;;;;6.50;3.50;;;;;19.50;52.68;100906.72;5040235;28;45438;-85
2021/07/07 03:13:02;;;;;;;;;3.00;3.00;;;;;19.51;53.26;100916.34;5039463;28;45391;-85
2021/07/07 03:15:28;;;;;;;;;4.00;3.00;;;;;19.48;52.82;100909.34;5038606;28;45709;-85
2021/07/07 03:17:55;;;;;;;;;3.00;2.25;;;;;19.44;53.16;100910.16;5038452;28;45399;-85
2021/07/07 03:20:21;;;;;;;;;3.50;2.50;;;;;19.47;53.22;100909.31;5038025;28;45315;-85
2021/07/07 03:22:47;;;;;;;;;5.75;2.75;;;;;19.43;53.15;100911.03;5042258;28;44960;-85
2021/07/07 03:25:13;;;;;;;;;2.00;2.00;;;;;19.42;53.46;100918.91;5044710;28;45317;-81
2021/07/07 03:27:38;;;;;;;;;4.00;3.50;;;;;19.39;53.43;100921.47;5038603;28;46518;-82
2021/07/07 03:30:05;;;;;;;;;3.75;3.00;;;;;19.33;53.78;100915.28;5038609;28;45332;-82
2021/07/07 03:32:32;;;;;;;;;4.75;3.25;;;;;19.32;53.72;100907.41;5038664;28;45423;-82
2021/07/07 03:34:57;;;;;;;;;2.25;2.25;;;;;19.32;54.07;100917.91;5037762;28;45462;-82
2021/07/07 03:37:23;;;;;;;;;1.75;1.75;;;;;19.32;53.83;100921.44;5037658;28;45801;-82
2021/07/07 03:39:49;;;;;;;;;3.25;1.00;;;;;19.32;54.07;100917.91;5019688;28;45482;-82
2021/07/07 03:42:14;;;;;;;;;3.00;3.00;;;;;19.33;54.36;100922.28;5038189;28;45327;-82
2021/07/07 03:44:40;;;;;;;;;2.25;2.25;;;;;19.33;54.00;100933.66;5045287;28;45455;-83
2021/07/07 03:47:06;;;;;;;;;3.25;3.25;;;;;19.27;54.10;100932.75;5037718;28;45225;-80
2021/07/07 03:49:31;;;;;;;;;4.00;3.75;;;;;19.23;54.11;100937.06;5037978;28;45559;-81
2021/07/07 03:51:57;;;;;;;;;2.00;2.00;;;;;19.22;54.19;100931.78;5037841;28;45324;-80
2021/07/07 03:54:24;;;;;;;;;2.50;2.50;;;;;19.22;54.33;100932.66;5037606;28;45406;-81
2021/07/07 03:56:56;;;;;;;;;2.25;2.00;;;;;19.21;54.58;100936.19;5037230;28;45733;-81
2021/07/07 03:59:23;;;;;;;;;4.50;3.75;;;;;19.18;54.80;100939.63;5037266;28;45235;-81
2021/07/07 04:01:49;;;;;;;;;4.00;2.75;;;;;19.21;54.77;100948.41;5037363;28;45341;-81
2021/07/07 04:04:15;;;;;;;;;2.50;2.25;;;;;19.17;54.48;100934.38;5037942;28;45566;-82
2021/07/07 04:06:42;;;;;;;;;5.50;2.50;;;;;19.16;54.67;100930.00;5035825;28;46691;-82
2021/07/07 04:09:08;;;;;;;;;5.00;3.25;;;;;19.13;55.30;100938.72;5019258;28;45900;-82
2021/07/07 04:11:34;;;;;;;;;2.00;2.00;;;;;19.12;55.08;100931.69;5037775;28;45444;-81
2021/07/07 04:13:59;;;;;;;;;2.75;2.25;;;;;19.10;55.01;100933.41;5019608;28;45415;-82
2021/07/07 04:16:25;;;;;;;;;2.25;2.25;;;;;19.13;54.94;100936.09;5037158;28;46304;-82
2021/07/07 04:18:52;;;;;;;;;4.50;3.50;;;;;19.18;54.42;100942.25;5036135;28;45527;-81
2021/07/07 04:21:18;;;;;;;;;3.00;3.00;;;;;19.22;54.79;100948.41;5037623;28;45241;-83
2021/07/07 04:23:44;;;;;;;;;4.75;4.00;;;;;19.24;55.06;100949.31;5043875;28;45257;-81
2021/07/07 04:26:10;;;;;;;;;3.00;3.00;;;;;19.26;54.80;100952.84;5021845;28;47916;-82
2021/07/07 04:28:35;;;;;;;;;2.00;2.00;;;;;19.27;54.64;100956.38;5038797;28;45379;-81
2021/07/07 04:31:01;;;;;;;;;4.25;3.00;;;;;19.27;55.06;100964.25;5037378;28;45404;-81
2021/07/07 04:33:27;;;;;;;;;4.50;3.75;;;;;19.29;55.01;100962.50;5037299;28;45685;-82
2021/07/07 04:35:52;;;;;;;;;3.00;3.00;;;;;19.31;55.27;100956.41;5036492;28;46252;-81
2021/07/07 04:38:18;;;;;;;;;2.75;2.75;;;;;19.34;55.00;100966.06;5036843;28;45454;-82
2021/07/07 04:40:43;;;;;;;;;6.00;4.00;;;;;19.38;55.13;100966.97;5036650;28;45436;-82
2021/07/07 04:43:10;;;;;;;;;5.75;3.00;;;;;19.39;54.91;100974.84;5037300;28;45506;-81
2021/07/07 04:45:36;;;;;;;;;4.50;4.50;;;;;19.43;54.80;100979.28;5036390;28;46475;-81
2021/07/07 04:48:03;;;;;;;;;4.00;4.00;;;;;19.48;55.18;100981.97;5037120;28;45344;-82
2021/07/07 04:50:28;;;;;;;;;4.00;3.00;;;;;19.52;54.85;100983.78;5018973;28;45406;-82
2021/07/07 04:52:54;;;;;;;;;4.25;3.00;;;;;19.53;54.54;100988.16;5018785;28;45278;-82
2021/07/07 04:55:20;;;;;;;;;2.50;2.50;;;;;19.53;54.77;100984.63;5036539;28;46243;-81
2021/07/07 04:57:46;;;;;;;;;5.00;5.00;;;;;19.57;54.93;100987.31;5036535;28;45714;-81
2021/07/07 05:00:15;;;;;;;;;4.25;3.25;;;;;19.57;54.85;100989.06;5036860;28;45398;-81
2021/07/07 05:02:43;;;;;;;;;2.75;1.50;;;;;19.58;54.41;100998.72;5040977;28;45256;-82
2021/07/07 05:05:12;;;;;;;;;6.50;4.50;;;;;19.52;54.63;100983.78;5038730;28;46154;-82
2021/07/07 05:07:38;;;;;;;;;6.25;3.75;;;;;19.54;54.53;100992.56;5036001;28;45415;-80
2021/07/07 05:10:05;;;;;;;;;4.00;4.00;;;;;19.49;54.72;100989.84;5036811;28;45415;-81
2021/07/07 05:12:32;;;;;;;;;4.00;4.00;;;;;19.51;55.00;101005.63;5037122;28;45305;-81
2021/07/07 05:14:59;;;;;;;;;5.00;5.00;;;;;19.49;54.92;101002.09;5035936;28;45499;-81
2021/07/07 05:17:26;;;;;;;;;3.75;3.00;;;;;19.46;55.21;101005.59;5036187;28;45330;-81
2021/07/07 05:19:52;;;;;;;;;4.00;4.00;;;;;19.41;55.16;101002.03;5036316;28;45515;-81
2021/07/07 05:22:18;;;;;;;;;2.50;2.50;;;;;19.39;55.55;101003.75;5036732;28;45395;-81
2021/07/07 05:24:45;;;;;;;;;4.00;4.00;;;;;19.46;55.13;101016.09;5038192;28;46589;-83
2021/07/07 05:27:11;;;;;;;;;4.75;3.25;;;;;19.51;55.46;101003.00;5040814;28;45281;-81
2021/07/07 05:29:37;;;;;;;;;6.25;4.00;;;;;19.55;55.10;101004.78;5039971;28;45329;-81
2021/07/07 05:32:03;;;;;;;;;4.25;3.25;;;;;19.59;55.04;101000.47;5019023;28;45218;-81
2021/07/07 05:34:29;;;;;;;;;3.00;3.00;;;;;19.63;55.35;101011.03;5035176;28;45432;-82
2021/07/07 05:36:54;;;;;;;;;4.50;4.00;;;;;19.63;55.16;101013.66;5032689;28;45816;-83
2021/07/07 05:39:20;;;;;;;;;5.75;4.00;;;;;19.63;54.84;101015.38;5035250;28;45233;-82
2021/07/07 05:41:45;;;;;;;;;7.00;4.25;;;;;19.67;54.92;101017.19;5035717;28;45324;-82
2021/07/07 05:44:11;;;;;;;;;5.00;4.00;;;;;19.64;55.04;101019.78;5035773;28;45942;-83
2021/07/07 05:46:36;;;;;;;;;4.00;4.00;;;;;19.61;55.49;101023.25;5035040;28;45346;-83
2021/07/07 05:49:03;;;;;;;;;4.00;4.00;;;;;19.56;55.38;101018.81;5035925;28;45367;-82
2021/07/07 05:51:28;;;;;;;;;3.25;3.00;;;;;19.49;55.60;101015.25;5036333;28;45669;-83
2021/07/07 05:53:54;;;;;;;;;6.50;4.25;;;;;19.46;55.58;101030.94;5035435;28;46058;-85
2021/07/07 05:56:20;;;;;;;;;7.50;3.25;;;;;19.44;55.58;101019.53;5018567;28;45372;-86
2021/07/07 05:58:46;;;;;;;;;4.50;4.00;;;;;19.49;55.76;101037.13;5040630;28;45289;-84
2021/07/07 06:01:13;;;;;;;;;4.50;4.25;;;;;19.43;55.87;101021.31;5035863;28;45494;-83
2021/07/07 06:03:40;;;;;;;;;5.75;4.50;;;;;19.45;55.57;101024.84;5035844;28;46419;-84
2021/07/07 06:06:06;;;;;;;;;6.25;3.50;;;;;19.46;55.81;101020.44;5035932;28;45421;-81
2021/07/07 06:08:31;;;;;;;;;6.00;3.50;;;;;19.47;55.95;101023.09;5035831;28;45411;-83
2021/07/07 06:10:57;;;;;;;;;4.00;3.50;;;;;19.52;56.07;101030.13;5037640;28;45639;-83
2021/07/07 06:13:23;;;;;;;;;5.75;3.50;;;;;19.51;55.61;101017.88;5038667;28;45528;-81
2021/07/07 06:15:49;;;;;;;;;5.00;4.00;;;;;19.51;56.10;101029.28;5038796;28;45393;-81
2021/07/07 06:18:14;;;;;;;;;3.00;3.00;;;;;19.49;56.27;101033.63;5039362;28;45464;-79
2021/07/07 06:20:40;;;;;;;;;8.00;3.50;;;;;19.46;56.32;101034.47;5039668;28;45449;-78
2021/07/07 06:23:07;;;;;;;;;4.00;4.00;;;;;19.44;56.43;101040.53;5045080;28;46134;-81
2021/07/07 06:25:32;;;;;;;;;5.00;5.00;;;;;19.36;56.18;101039.59;5039205;28;45842;-79
2021/07/07 06:28:00;;;;;;;;;5.25;4.25;;;;;19.37;56.36;101047.50;5038379;28;45274;-79
2021/07/07 06:30:27;;;;;;;;;7.00;6.00;;;;;19.36;56.18;101040.47;5039057;28;45594;-81
2021/07/07 06:32:57;;;;;;;;;6.25;4.75;;;;;19.32;56.29;101041.28;5033498;28;46261;-81
2021/07/07 06:35:23;;;;;;;;;4.00;3.75;;;;;19.32;56.40;101042.19;5033612;28;45696;-82
2021/07/07 06:37:51;;;;;;;;;5.50;5.50;;;;;19.33;56.88;101050.94;5038982;28;45221;-81
2021/07/07 06:40:18;;;;;;;;;4.50;2.75;;;;;19.33;56.74;101049.19;5018058;28;45504;-80
2021/07/07 06:42:45;;;;;;;;;5.50;4.75;;;;;19.32;56.63;101052.69;5036366;28;45638;-86
2021/07/07 06:45:12;;;;;;;;;5.50;4.00;;;;;19.35;56.63;101057.09;5038662;28;45549;-83
2021/07/07 06:47:38;;;;;;;;;5.75;4.25;;;;;19.36;56.46;101055.34;5037929;28;45395;-83
2021/07/07 06:50:06;;;;;;;;;5.75;5.00;;;;;19.38;56.85;101058.88;5032884;28;45235;-80
2021/07/07 06:52:32;;;;;;;;;5.25;3.75;;;;;19.38;56.41;101056.25;5031855;28;45444;-83
2021/07/07 06:54:57;;;;;;;;;4.00;4.00;;;;;19.39;56.10;101056.25;5035484;28;45417;-80
2021/07/07 06:57:23;;;;;;;;;4.75;4.00;;;;;19.43;56.65;101059.81;5041905;28;45496;-81
2021/07/07 06:59:48;;;;;;;;;5.75;5.75;;;;;19.44;56.84;101054.56;5032722;28;45490;-82
2021/07/07 07:02:14;;;;;;;;;6.75;6.00;;;;;19.48;56.10;101063.38;5031518;28;45459;-81
2021/07/07 07:04:40;;;;;;;;;6.00;5.75;;;;;19.49;56.13;101066.00;5029903;28;45467;-82
2021/07/07 07:07:05;;;;;;;;;9.25;5.25;;;;;19.54;56.01;101073.06;5042229;28;45369;-86
2021/07/07 07:09:31;;;;;;;;;8.50;7.00;;;;;19.59;56.44;101076.66;5022470;28;45428;-85
2021/07/07 07:11:57;;;;;;;;;7.75;4.25;;;;;19.65;56.28;101068.81;5038267;28;45212;-85
2021/07/07 07:14:23;;;;;;;;;6.25;4.25;;;;;19.84;55.37;101072.53;5020529;28;45332;-80
2021/07/07 07:16:49;;;;;;;;;8.00;7.00;;;;;19.97;55.09;101076.19;5032978;28;45459;-79
2021/07/07 07:19:15;;;;;;;;;7.00;4.25;;;;;20.03;54.74;101080.63;5037780;28;45293;-81
2021/07/07 07:21:41;;;;;;;;;6.50;5.50;;;;;20.10;55.27;101083.34;5036692;28;46197;-80
2021/07/07 07:24:07;;;;;;;;;4.50;4.50;;;;;20.14;54.15;101078.13;5039210;28;45810;-81
2021/07/07 07:26:33;;;;;;;;;7.25;4.75;;;;;20.15;54.03;101082.50;5038294;28;45412;-80
2021/07/07 07:29:00;;;;;;;;;4.75;4.00;;;;;20.20;53.79;101091.31;5040446;28;45630;-80
2021/07/07 07:31:27;;;;;;;;;5.25;4.50;;;;;20.25;53.50;101100.13;5041017;28;45489;-79
2021/07/07 07:33:53;;;;;;;;;5.75;5.75;;;;;20.23;53.14;101104.50;5022213;28;45285;-84
2021/07/07 07:36:20;;;;;;;;;7.50;6.00;;;;;20.20;53.18;101102.69;5039785;28;45487;-79
2021/07/07 07:38:48;;;;;;;;;7.75;6.50;;;;;20.23;52.73;101105.38;5040191;28;45637;-82
2021/07/07 07:41:15;;;;;;;;;5.75;4.75;;;;;20.29;52.16;101115.06;5045211;28;45472;-86
2021/07/07 07:43:42;;;;;;;;;7.00;5.00;;;;;20.36;51.80;101118.63;5045468;28;45258;-85
2021/07/07 07:46:08;;;;;;;;;9.75;6.00;;;;;20.34;51.98;101108.13;5042923;28;45236;-86
2021/07/07 07:48:34;;;;;;;;;6.75;6.75;;;;;20.35;52.18;101108.97;5042971;28;45552;-86
2021/07/07 07:51:00;;;;;;;;;5.75;5.75;;;;;20.35;51.81;101106.34;5041612;28;46327;-84
2021/07/07 07:53:26;;;;;;;;;7.00;4.00;;;;;20.37;51.93;101125.66;5041041;28;45467;-84
2021/07/07 07:55:52;;;;;;;;;5.25;4.50;;;;;20.40;51.31;101126.56;5038386;28;45329;-83
2021/07/07 07:58:18;;;;;;;;;5.25;5.25;;;;;20.39;51.34;101110.78;5037887;28;45446;-82
2021/07/07 08:00:49;;;;;;;;;7.00;5.25;;;;;20.47;51.17;101117.00;5037527;28;46489;-86
2021/07/07 08:03:15;;;;;;;;;4.25;4.00;;;;;20.53;51.01;101121.41;5038556;28;45308;-85
2021/07/07 08:05:42;;;;;;;;;4.00;4.00;;;;;20.62;51.55;101128.53;5038516;28;45443;-84
2021/07/07 08:08:09;;;;;;;;;5.75;4.25;;;;;20.68;51.24;101123.28;5051510;28;45510;-85
2021/07/07 08:10:37;;;;;;;;;5.50;5.00;;;;;20.75;50.24;101125.13;5040387;28;45463;-84
2021/07/07 08:13:03;;;;;;;;;7.00;5.75;;;;;20.79;50.07;101121.66;5045485;28;45251;-84
2021/07/07 08:15:30;;;;;;;;;5.75;5.75;;;;;20.85;50.03;101128.72;5034846;28;45881;-84
2021/07/07 08:17:56;;;;;;;;;9.25;7.75;;;;;20.90;50.42;101128.75;5025214;28;45633;-84
2021/07/07 08:20:23;;;;;;;;;8.25;5.25;;;;;20.97;49.55;101123.56;5030475;28;45470;-83
2021/07/07 08:22:50;;;;;;;;;5.25;5.25;;;;;20.93;49.81;101137.53;5030662;28;45522;-83
2021/07/07 08:25:17;;;;;;;;;5.00;5.00;;;;;20.86;49.57;101138.38;5020413;28;45359;-89
2021/07/07 08:27:43;;;;;;;;;6.25;5.00;;;;;20.90;49.59;101145.41;5020621;28;45264;-80
2021/07/07 08:30:10;;;;;;;;;6.00;6.00;;;;;20.91;49.63;101139.28;5036510;28;45441;-80
2021/07/07 08:32:36;;;;;;;;;6.25;4.75;;;;;20.93;49.18;101134.06;5036093;28;45351;-80
2021/07/07 08:35:02;;;;;;;;;4.50;4.25;;;;;20.89;49.23;101135.78;5036220;28;45618;-79
2021/07/07 08:37:28;;;;;;;;;5.00;5.00;;;;;20.85;49.08;101141.88;5037804;28;45605;-81
2021/07/07 08:39:54;;;;;;;;;4.75;4.75;;;;;20.85;49.50;101141.88;5040466;28;46006;-79
2021/07/07 08:42:20;;;;;;;;;4.25;3.50;;;;;20.91;49.67;101139.28;5036737;28;45706;-80
2021/07/07 08:44:45;;;;;;;;;3.25;3.25;;;;;21.01;49.24;101141.09;5035071;28;45339;-81
2021/07/07 08:47:11;;;;;;;;;8.00;4.25;;;;;21.15;49.40;101146.50;5036906;28;45517;-79
2021/07/07 08:49:37;;;;;;;;;6.00;3.25;;;;;21.22;49.33;101142.13;5037524;28;45435;-79
2021/07/07 08:52:04;;;;;;;;;5.75;5.25;;;;;21.37;49.49;101148.34;5041027;28;44683;-80
2021/07/07 08:54:30;;;;;;;;;3.50;3.50;;;;;21.50;48.99;101147.56;5039776;28;45318;-78
2021/07/07 08:56:58;;;;;;;;;3.25;3.25;;;;;21.61;48.44;101143.25;5037847;28;45506;-80
2021/07/07 08:59:24;;;;;;;;;3.75;3.00;;;;;21.68;47.86;101145.91;5038780;28;46096;-80
2021/07/07 09:02:11;;;;;;;;;6.25;4.25;;;;;21.73;47.20;101157.34;5038819;28;45744;-79
2021/07/07 09:04:40;;;;;;;;;4.00;4.00;;;;;21.70;46.98;101158.22;5038970;28;45249;-79
2021/07/07 09:07:14;;;;;;;;;7.00;4.25;;;;;21.68;47.72;101159.06;5037171;28;45518;-80
2021/07/07 09:09:51;;;;;;;;;3.00;3.00;;;;;21.66;47.15;101151.16;5035910;28;46285;-78
2021/07/07 09:12:25;;;;;;;;;2.50;2.50;;;;;21.58;46.27;101161.63;5032784;28;45551;-79
2021/07/07 09:15:07;;;;;;;;;4.50;4.50;;;;;21.42;46.59;101157.19;5032529;28;45637;-80
2021/07/07 09:17:41;;;;;;;;;2.75;2.25;;;;;21.34;47.05;101170.28;5055692;28;45224;-81
2021/07/07 09:20:17;;;;;;;;;2.75;1.50;;;;;21.32;47.15;101169.41;5039141;28;45463;-78
2021/07/07 09:22:43;;;;;;;;;3.25;3.25;;;;;21.26;47.09;101167.59;5038429;28;45439;-79
2021/07/07 09:25:09;;;;;;;;;3.75;3.75;;;;;21.25;47.66;101168.47;5041125;28;45448;-86
2021/07/07 09:27:38;;;;;;;;;2.50;2.50;;;;;21.30;48.00;101165.88;5039268;28;45264;-79
2021/07/07 09:30:09;;;;;;;;;3.25;3.25;;;;;21.42;47.52;101172.97;5035967;28;45424;-80
2021/07/07 09:32:47;;;;;;;;;3.00;2.25;;;;;21.47;47.53;101165.97;5036301;28;45587;-80
2021/07/07 09:35:16;;;;;;;;;4.00;3.50;;;;;21.57;47.97;101177.44;5038382;28;45393;-80
2021/07/07 09:37:53;;;;;;;;;4.25;4.00;;;;;21.62;48.40;101171.38;5037669;28;45515;-80
2021/07/07 09:40:20;;;;;;;;;4.00;3.00;;;;;21.70;48.34;101181.03;5033535;28;46103;-79
2021/07/07 09:42:47;;;;;;;;;3.75;3.00;;;;;21.73;48.20;101181.94;5040919;28;45325;-80
2021/07/07 09:45:19;;;;;;;;;5.75;4.00;;;;;21.74;48.17;101175.78;5039936;28;45317;-91
2021/07/07 09:47:45;;;;;;;;;4.50;3.75;;;;;21.88;48.24;101167.06;5021160;28;45427;-81
2021/07/07 09:50:13;;;;;;;;;5.00;5.00;;;;;21.97;47.42;101174.13;5035546;28;45368;-79
2021/07/07 09:52:39;;;;;;;;;4.75;4.00;;;;;22.04;47.94;101168.00;5036273;28;45437;-81
2021/07/07 09:55:09;;;;;;;;;6.75;6.75;;;;;22.11;47.65;101169.75;5035800;28;46979;-81
2021/07/07 09:57:44;;;;;;;;;5.25;4.50;;;;;22.22;47.16;101162.75;5037400;28;45463;-82
2021/07/07 10:00:20;;;;;;;;;3.00;3.00;;;;;22.36;46.58;101172.47;5035853;28;45383;-83
2021/07/07 10:02:51;;;;;;;;;5.00;5.00;;;;;22.39;46.31;101170.72;5035308;28;45278;-80
2021/07/07 10:05:19;;;;;;;;;5.00;4.50;;;;;22.34;46.42;101163.66;5036950;28;45355;-83
2021/07/07 10:07:46;;;;;;;;;4.00;3.50;;;;;22.29;46.54;101166.28;5035977;28;45620;-82
2021/07/07 10:10:13;;;;;;;;;5.00;5.00;;;;;22.26;46.64;101168.91;5035838;28;45444;-82
2021/07/07 10:12:45;;;;;;;;;4.50;3.75;;;;;22.27;46.12;101173.31;5036019;28;45388;-83
2021/07/07 10:15:13;;;;;;;;;6.00;4.75;;;;;22.25;46.29;101175.97;5036679;28;45419;-86
2021/07/07 10:17:39;;;;;;;;;4.75;4.75;;;;;22.30;46.82;101172.47;5018072;28;45418;-80
2021/07/07 10:20:07;;;;;;;;;4.25;3.75;;;;;22.41;46.35;101176.91;5035482;28;45304;-81
2021/07/07 10:22:35;;;;;;;;;6.50;4.25;;;;;22.55;45.58;101192.75;5035615;28;45653;-80
2021/07/07 10:25:01;;;;;;;;;5.00;4.50;;;;;22.56;44.89;101181.31;5037463;28;45229;-80
2021/07/07 10:27:28;;;;;;;;;5.75;4.50;;;;;22.59;45.31;101177.78;5035326;28;45298;-81
2021/07/07 10:29:54;;;;;;;;;5.25;5.00;;;;;22.54;44.71;101169.00;5034763;28;45427;-81
2021/07/07 10:32:19;;;;;;;;;4.25;4.25;;;;;22.49;44.51;101181.31;5035238;28;45425;-81
2021/07/07 10:34:47;;;;;;;;;4.25;4.25;;;;;22.39;44.61;101169.84;5016938;28;45342;-79
2021/07/07 10:37:14;;;;;;;;;5.75;5.75;;;;;22.46;44.58;101181.31;5035568;28;45625;-79
2021/07/07 10:39:39;;;;;;;;;5.25;5.25;;;;;22.50;44.93;101172.50;5034885;28;46135;-79
2021/07/07 10:42:06;;;;;;;;;5.25;5.25;;;;;22.53;44.52;101168.13;5035167;28;45260;-79
2021/07/07 10:44:40;;;;;;;;;4.00;4.00;;;;;22.66;44.62;101162.84;5035509;28;45343;-79
2021/07/07 10:47:16;;;;;;;;;4.75;4.75;;;;;22.80;44.33;101155.81;5035634;28;45244;-80
2021/07/07 10:49:50;;;;;;;;;6.50;6.50;;;;;22.94;44.56;101160.22;5034623;28;45711;-79
2021/07/07 10:52:41;;;;;;;;;6.25;5.50;;;;;22.96;44.65;101156.69;5034747;28;45391;-80
2021/07/07 10:55:12;;;;;;;;;5.25;5.00;;;;;23.04;44.10;101161.97;5016907;28;45509;-80
2021/07/07 10:57:38;;;;;;;;;5.00;4.00;;;;;23.08;44.30;101157.56;5019929;28;45528;-82
2021/07/07 11:00:08;;;;;;;;;7.25;6.00;;;;;23.14;44.55;101161.06;5038708;28;45379;-82
2021/07/07 11:02:34;;;;;;;;;10.50;7.00;;;;;23.16;44.32;101166.34;5038835;28;45353;-80
2021/07/07 11:05:05;;;;;;;;;6.00;4.25;;;;;23.16;43.92;101158.41;5039744;28;45828;-81
2021/07/07 11:07:35;;;;;;;;;4.00;4.00;;;;;23.14;43.72;101171.63;5043117;28;45355;-81
2021/07/07 11:10:17;;;;;;;;;6.25;5.00;;;;;23.16;43.66;101167.19;5039067;28;46543;-81
2021/07/07 11:12:43;;;;;;;;;6.50;5.25;;;;;23.18;43.65;101176.00;5038244;28;45431;-81
2021/07/07 11:15:14;;;;;;;;;4.25;4.00;;;;;23.25;43.60;101176.03;5038340;28;45302;-82
2021/07/07 11:17:52;;;;;;;;;5.75;5.75;;;;;23.26;43.97;101167.25;5037204;28;45752;-82
2021/07/07 11:20:33;;;;;;;;;7.00;7.00;;;;;23.27;44.05;101172.50;5037937;28;46507;-81
2021/07/07 11:23:06;;;;;;;;;4.00;4.00;;;;;23.29;44.05;101169.84;5037628;28;45400;-81
2021/07/07 11:25:33;;;;;;;;;6.25;6.25;;;;;23.36;44.40;101173.38;5020493;28;45359;-81